sensor_id;sensor_type;location;lat;lon;timestamp;temperature;humidity
20594;DHT22;10455;48.732;10.266;2022-08-03T00:00:25;15.50;99.90
20594;DHT22;10455;48.732;10.266;2022-08-03T00:05:28;15.40;99.90
20594;DHT22;10455;48.732;10.266;2022-08-03T00:10:32;15.30;99.90
20594;DHT22;10455;48.732;10.266;2022-08-03T00:15:34;15.30;99.90
20594;DHT22;10455;48.732;10.266;2022-08-03T00:20:38;15.30;99.90
20594;DHT22;10455;48.732;10.266;2022-08-03T00:25:40;15.30;99.90
20594;DHT22;10455;48.732;10.266;2022-08-03T00:30:42;15.20;99.90
20594;DHT22;10455;48.732;10.266;2022-08-03T00:35:46;15.20;99.90
20594;DHT22;10455;48.732;10.266;2022-08-03T00:40:48;15.00;99.90
20594;DHT22;10455;48.732;10.266;2022-08-03T00:45:50;15.10;99.90
20594;DHT22;10455;48.732;10.266;2022-08-03T00:50:54;15.00;99.90
20594;DHT22;10455;48.732;10.266;2022-08-03T00:55:56;15.00;99.90
20594;DHT22;10455;48.732;10.266;2022-08-03T01:00:58;14.90;99.90
20594;DHT22;10455;48.732;10.266;2022-08-03T01:06:09;14.80;99.90
20594;DHT22;10455;48.732;10.266;2022-08-03T01:11:18;14.80;99.90
20594;DHT22;10455;48.732;10.266;2022-08-03T01:16:25;14.70;99.90
20594;DHT22;10455;48.732;10.266;2022-08-03T01:21:33;14.70;99.90
20594;DHT22;10455;48.732;10.266;2022-08-03T01:27:02;14.50;99.90
20594;DHT22;10455;48.732;10.266;2022-08-03T01:32:10;14.60;99.90
20594;DHT22;10455;48.732;10.266;2022-08-03T01:37:16;14.40;99.90
20594;DHT22;10455;48.732;10.266;2022-08-03T01:42:24;14.40;99.90
20594;DHT22;10455;48.732;10.266;2022-08-03T01:47:28;14.40;99.90
20594;DHT22;10455;48.732;10.266;2022-08-03T01:52:32;14.40;99.90
20594;DHT22;10455;48.732;10.266;2022-08-03T01:57:35;14.30;99.90
20594;DHT22;10455;48.732;10.266;2022-08-03T02:02:41;14.30;99.90
20594;DHT22;10455;48.732;10.266;2022-08-03T02:07:45;14.30;99.90
20594;DHT22;10455;48.732;10.266;2022-08-03T02:12:49;14.30;99.90
20594;DHT22;10455;48.732;10.266;2022-08-03T02:17:54;14.30;99.90
20594;DHT22;10455;48.732;10.266;2022-08-03T02:22:57;14.20;99.90
20594;DHT22;10455;48.732;10.266;2022-08-03T02:28:05;14.10;99.90
20594;DHT22;10455;48.732;10.266;2022-08-03T02:33:13;14.00;99.90
20594;DHT22;10455;48.732;10.266;2022-08-03T02:38:20;14.10;99.90
20594;DHT22;10455;48.732;10.266;2022-08-03T02:43:24;14.00;99.90
20594;DHT22;10455;48.732;10.266;2022-08-03T02:48:30;13.90;99.90
20594;DHT22;10455;48.732;10.266;2022-08-03T02:53:34;13.90;99.90
20594;DHT22;10455;48.732;10.266;2022-08-03T02:58:38;13.90;99.90
20594;DHT22;10455;48.732;10.266;2022-08-03T03:03:42;13.70;99.90
20594;DHT22;10455;48.732;10.266;2022-08-03T03:08:46;13.70;99.90
20594;DHT22;10455;48.732;10.266;2022-08-03T03:13:48;13.60;99.90
20594;DHT22;10455;48.732;10.266;2022-08-03T03:18:53;13.70;99.90
20594;DHT22;10455;48.732;10.266;2022-08-03T03:23:56;13.60;99.90
20594;DHT22;10455;48.732;10.266;2022-08-03T03:29:00;13.60;99.90
20594;DHT22;10455;48.732;10.266;2022-08-03T03:34:04;13.60;99.90
20594;DHT22;10455;48.732;10.266;2022-08-03T03:39:06;13.50;99.90
20594;DHT22;10455;48.732;10.266;2022-08-03T03:44:08;13.50;99.90
20594;DHT22;10455;48.732;10.266;2022-08-03T03:49:12;13.40;99.90
20594;DHT22;10455;48.732;10.266;2022-08-03T03:54:14;13.40;99.90
20594;DHT22;10455;48.732;10.266;2022-08-03T03:59:16;13.40;99.90
20594;DHT22;10455;48.732;10.266;2022-08-03T04:04:20;13.50;99.90
20594;DHT22;10455;48.732;10.266;2022-08-03T04:09:45;13.60;99.90
20594;DHT22;10455;48.732;10.266;2022-08-03T04:15:18;13.50;99.90
20594;DHT22;10455;48.732;10.266;2022-08-03T04:20:26;13.60;99.90
20594;DHT22;10455;48.732;10.266;2022-08-03T04:25:31;13.80;99.90
20594;DHT22;10455;48.732;10.266;2022-08-03T04:30:36;13.80;99.90
20594;DHT22;10455;48.732;10.266;2022-08-03T04:35:43;13.90;99.90
20594;DHT22;10455;48.732;10.266;2022-08-03T04:40:46;14.00;99.90
20594;DHT22;10455;48.732;10.266;2022-08-03T04:45:49;14.30;99.90
20594;DHT22;10455;48.732;10.266;2022-08-03T04:50:53;14.60;99.90
20594;DHT22;10455;48.732;10.266;2022-08-03T04:56:03;16.90;99.90
20594;DHT22;10455;48.732;10.266;2022-08-03T05:01:06;21.50;99.90
20594;DHT22;10455;48.732;10.266;2022-08-03T05:06:09;24.50;99.90
20594;DHT22;10455;48.732;10.266;2022-08-03T05:11:11;26.70;99.90
20594;DHT22;10455;48.732;10.266;2022-08-03T05:16:13;28.20;99.90
20594;DHT22;10455;48.732;10.266;2022-08-03T05:21:17;29.60;94.80
20594;DHT22;10455;48.732;10.266;2022-08-03T05:26:19;30.60;92.50
20594;DHT22;10455;48.732;10.266;2022-08-03T05:31:21;31.90;90.70
20594;DHT22;10455;48.732;10.266;2022-08-03T05:36:25;33.50;87.30
20594;DHT22;10455;48.732;10.266;2022-08-03T05:41:27;34.00;84.40
20594;DHT22;10455;48.732;10.266;2022-08-03T05:46:29;34.30;78.60
20594;DHT22;10455;48.732;10.266;2022-08-03T05:51:33;35.90;78.10
20594;DHT22;10455;48.732;10.266;2022-08-03T05:56:35;36.10;75.90
20594;DHT22;10455;48.732;10.266;2022-08-03T06:01:37;36.70;69.50
20594;DHT22;10455;48.732;10.266;2022-08-03T06:06:40;36.30;69.90
20594;DHT22;10455;48.732;10.266;2022-08-03T06:11:43;37.30;68.90
20594;DHT22;10455;48.732;10.266;2022-08-03T06:16:45;38.30;64.30
20594;DHT22;10455;48.732;10.266;2022-08-03T06:21:48;38.70;61.40
20594;DHT22;10455;48.732;10.266;2022-08-03T06:26:50;39.50;60.90
20594;DHT22;10455;48.732;10.266;2022-08-03T06:31:53;39.10;61.70
20594;DHT22;10455;48.732;10.266;2022-08-03T06:36:56;40.20;59.90
20594;DHT22;10455;48.732;10.266;2022-08-03T06:41:58;40.30;59.20
20594;DHT22;10455;48.732;10.266;2022-08-03T06:47:00;39.80;59.40
20594;DHT22;10455;48.732;10.266;2022-08-03T06:52:04;40.70;57.90
20594;DHT22;10455;48.732;10.266;2022-08-03T06:57:06;40.40;57.70
20594;DHT22;10455;48.732;10.266;2022-08-03T07:02:11;39.90;59.10
20594;DHT22;10455;48.732;10.266;2022-08-03T07:07:14;42.70;55.50
20594;DHT22;10455;48.732;10.266;2022-08-03T07:12:17;42.60;54.90
20594;DHT22;10455;48.732;10.266;2022-08-03T07:17:19;44.00;53.40
20594;DHT22;10455;48.732;10.266;2022-08-03T07:22:22;44.90;51.50
20594;DHT22;10455;48.732;10.266;2022-08-03T07:27:25;45.20;48.50
20594;DHT22;10455;48.732;10.266;2022-08-03T07:32:28;42.90;49.60
20594;DHT22;10455;48.732;10.266;2022-08-03T07:37:32;43.30;50.10
20594;DHT22;10455;48.732;10.266;2022-08-03T07:42:34;41.10;51.90
20594;DHT22;10455;48.732;10.266;2022-08-03T07:47:37;41.10;52.40
20594;DHT22;10455;48.732;10.266;2022-08-03T07:52:40;39.00;54.80
20594;DHT22;10455;48.732;10.266;2022-08-03T07:58:10;40.30;53.40
20594;DHT22;10455;48.732;10.266;2022-08-03T08:03:15;41.30;52.70
20594;DHT22;10455;48.732;10.266;2022-08-03T08:08:19;42.00;52.30
20594;DHT22;10455;48.732;10.266;2022-08-03T08:13:21;41.10;52.40
20594;DHT22;10455;48.732;10.266;2022-08-03T08:18:24;41.10;51.60
20594;DHT22;10455;48.732;10.266;2022-08-03T08:23:30;39.60;53.50
20594;DHT22;10455;48.732;10.266;2022-08-03T08:28:32;37.30;55.50
20594;DHT22;10455;48.732;10.266;2022-08-03T08:33:34;38.60;52.90
20594;DHT22;10455;48.732;10.266;2022-08-03T08:38:38;39.30;52.80
20594;DHT22;10455;48.732;10.266;2022-08-03T08:43:42;38.70;52.80
20594;DHT22;10455;48.732;10.266;2022-08-03T08:48:45;39.10;50.40
20594;DHT22;10455;48.732;10.266;2022-08-03T08:53:51;37.50;55.20
20594;DHT22;10455;48.732;10.266;2022-08-03T08:58:57;40.10;51.20
20594;DHT22;10455;48.732;10.266;2022-08-03T09:04:00;39.30;51.40
20594;DHT22;10455;48.732;10.266;2022-08-03T09:09:05;39.10;51.80
20594;DHT22;10455;48.732;10.266;2022-08-03T09:14:08;38.90;52.00
20594;DHT22;10455;48.732;10.266;2022-08-03T09:19:12;39.40;50.20
20594;DHT22;10455;48.732;10.266;2022-08-03T09:24:20;39.40;51.30
20594;DHT22;10455;48.732;10.266;2022-08-03T09:29:22;39.20;52.60
20594;DHT22;10455;48.732;10.266;2022-08-03T09:34:25;39.30;51.40
20594;DHT22;10455;48.732;10.266;2022-08-03T09:39:29;39.30;51.10
20594;DHT22;10455;48.732;10.266;2022-08-03T09:44:38;39.00;51.20
20594;DHT22;10455;48.732;10.266;2022-08-03T09:49:55;38.10;52.00
20594;DHT22;10455;48.732;10.266;2022-08-03T09:55:00;38.80;52.00
20594;DHT22;10455;48.732;10.266;2022-08-03T10:00:07;39.60;50.70
20594;DHT22;10455;48.732;10.266;2022-08-03T10:05:12;38.80;52.20
20594;DHT22;10455;48.732;10.266;2022-08-03T10:10:17;39.20;51.50
20594;DHT22;10455;48.732;10.266;2022-08-03T10:15:20;39.30;51.20
20594;DHT22;10455;48.732;10.266;2022-08-03T10:20:22;38.70;50.10
20594;DHT22;10455;48.732;10.266;2022-08-03T10:25:29;37.30;53.30
20594;DHT22;10455;48.732;10.266;2022-08-03T10:30:32;38.60;51.60
20594;DHT22;10455;48.732;10.266;2022-08-03T10:35:36;38.80;50.60
20594;DHT22;10455;48.732;10.266;2022-08-03T10:40:42;37.90;52.40
20594;DHT22;10455;48.732;10.266;2022-08-03T10:45:45;37.90;51.80
20594;DHT22;10455;48.732;10.266;2022-08-03T10:50:48;39.20;50.40
20594;DHT22;10455;48.732;10.266;2022-08-03T10:55:52;38.10;50.10
20594;DHT22;10455;48.732;10.266;2022-08-03T11:01:12;37.80;49.70
20594;DHT22;10455;48.732;10.266;2022-08-03T11:06:16;37.40;49.50
20594;DHT22;10455;48.732;10.266;2022-08-03T11:11:26;38.80;48.90
20594;DHT22;10455;48.732;10.266;2022-08-03T11:16:30;40.10;48.00
20594;DHT22;10455;48.732;10.266;2022-08-03T11:21:56;39.50;47.90
20594;DHT22;10455;48.732;10.266;2022-08-03T11:27:18;37.60;50.20
20594;DHT22;10455;48.732;10.266;2022-08-03T11:38:06;39.30;44.80
20594;DHT22;10455;48.732;10.266;2022-08-03T11:43:42;39.30;47.50
20594;DHT22;10455;48.732;10.266;2022-08-03T11:48:46;39.20;48.30
20594;DHT22;10455;48.732;10.266;2022-08-03T11:53:51;38.80;45.90
20594;DHT22;10455;48.732;10.266;2022-08-03T11:58:56;37.50;49.80
20594;DHT22;10455;48.732;10.266;2022-08-03T12:04:02;39.50;47.90
20594;DHT22;10455;48.732;10.266;2022-08-03T12:09:14;41.20;45.70
20594;DHT22;10455;48.732;10.266;2022-08-03T12:14:18;39.80;46.80
20594;DHT22;10455;48.732;10.266;2022-08-03T12:19:21;37.80;48.30
20594;DHT22;10455;48.732;10.266;2022-08-03T12:24:23;37.30;49.90
20594;DHT22;10455;48.732;10.266;2022-08-03T12:29:29;37.00;51.20
20594;DHT22;10455;48.732;10.266;2022-08-03T12:34:47;36.50;52.20
20594;DHT22;10455;48.732;10.266;2022-08-03T12:39:50;39.00;48.90
20594;DHT22;10455;48.732;10.266;2022-08-03T12:44:54;40.30;48.90
20594;DHT22;10455;48.732;10.266;2022-08-03T12:49:56;40.30;48.50
20594;DHT22;10455;48.732;10.266;2022-08-03T12:54:59;38.10;50.20
20594;DHT22;10455;48.732;10.266;2022-08-03T13:00:11;38.20;51.10
20594;DHT22;10455;48.732;10.266;2022-08-03T13:05:14;40.00;49.10
20594;DHT22;10455;48.732;10.266;2022-08-03T13:10:27;39.80;48.90
20594;DHT22;10455;48.732;10.266;2022-08-03T13:15:31;38.60;51.20
20594;DHT22;10455;48.732;10.266;2022-08-03T13:20:34;37.50;52.00
20594;DHT22;10455;48.732;10.266;2022-08-03T13:25:36;36.60;52.70
20594;DHT22;10455;48.732;10.266;2022-08-03T13:30:39;37.20;53.20
20594;DHT22;10455;48.732;10.266;2022-08-03T13:35:42;39.90;49.50
20594;DHT22;10455;48.732;10.266;2022-08-03T13:40:44;40.50;50.10
20594;DHT22;10455;48.732;10.266;2022-08-03T13:45:47;40.90;49.20
20594;DHT22;10455;48.732;10.266;2022-08-03T13:50:50;41.20;48.00
20594;DHT22;10455;48.732;10.266;2022-08-03T13:55:52;41.70;47.60
20594;DHT22;10455;48.732;10.266;2022-08-03T14:00:55;39.10;49.90
20594;DHT22;10455;48.732;10.266;2022-08-03T14:05:57;39.70;48.10
20594;DHT22;10455;48.732;10.266;2022-08-03T14:11:00;40.10;49.20
20594;DHT22;10455;48.732;10.266;2022-08-03T14:16:04;40.90;47.50
20594;DHT22;10455;48.732;10.266;2022-08-03T14:21:06;41.00;47.00
20594;DHT22;10455;48.732;10.266;2022-08-03T14:26:09;40.80;46.00
20594;DHT22;10455;48.732;10.266;2022-08-03T14:31:13;41.90;45.30
20594;DHT22;10455;48.732;10.266;2022-08-03T14:36:15;40.50;46.40
20594;DHT22;10455;48.732;10.266;2022-08-03T14:41:17;40.30;46.30
20594;DHT22;10455;48.732;10.266;2022-08-03T14:46:20;41.50;45.60
20594;DHT22;10455;48.732;10.266;2022-08-03T14:51:23;41.30;45.90
20594;DHT22;10455;48.732;10.266;2022-08-03T14:56:25;41.80;45.60
20594;DHT22;10455;48.732;10.266;2022-08-03T15:01:28;40.90;46.80
20594;DHT22;10455;48.732;10.266;2022-08-03T15:06:30;40.50;46.80
20594;DHT22;10455;48.732;10.266;2022-08-03T15:11:32;41.00;45.80
20594;DHT22;10455;48.732;10.266;2022-08-03T15:16:36;41.00;46.70
20594;DHT22;10455;48.732;10.266;2022-08-03T15:21:38;40.90;45.30
20594;DHT22;10455;48.732;10.266;2022-08-03T15:26:41;41.10;45.30
20594;DHT22;10455;48.732;10.266;2022-08-03T15:31:44;41.40;45.00
20594;DHT22;10455;48.732;10.266;2022-08-03T15:36:46;41.10;45.00
20594;DHT22;10455;48.732;10.266;2022-08-03T15:41:48;40.60;45.90
20594;DHT22;10455;48.732;10.266;2022-08-03T15:46:52;40.00;46.20
20594;DHT22;10455;48.732;10.266;2022-08-03T15:51:55;40.00;46.20
20594;DHT22;10455;48.732;10.266;2022-08-03T15:56:57;39.70;46.20
20594;DHT22;10455;48.732;10.266;2022-08-03T16:02:00;39.70;46.50
20594;DHT22;10455;48.732;10.266;2022-08-03T16:07:02;39.60;46.60
20594;DHT22;10455;48.732;10.266;2022-08-03T16:12:05;40.10;45.80
20594;DHT22;10455;48.732;10.266;2022-08-03T16:17:08;40.10;45.50
20594;DHT22;10455;48.732;10.266;2022-08-03T16:22:10;40.40;45.00
20594;DHT22;10455;48.732;10.266;2022-08-03T16:27:12;39.90;45.60
20594;DHT22;10455;48.732;10.266;2022-08-03T16:32:16;39.50;45.80
20594;DHT22;10455;48.732;10.266;2022-08-03T16:37:18;38.80;46.80
20594;DHT22;10455;48.732;10.266;2022-08-03T16:42:20;36.00;49.70
20594;DHT22;10455;48.732;10.266;2022-08-03T16:47:24;34.30;51.60
20594;DHT22;10455;48.732;10.266;2022-08-03T16:52:26;33.00;52.60
20594;DHT22;10455;48.732;10.266;2022-08-03T16:57:28;32.70;53.90
20594;DHT22;10455;48.732;10.266;2022-08-03T17:02:32;32.40;54.40
20594;DHT22;10455;48.732;10.266;2022-08-03T17:07:34;32.40;54.30
20594;DHT22;10455;48.732;10.266;2022-08-03T17:12:36;33.10;53.80
20594;DHT22;10455;48.732;10.266;2022-08-03T17:17:43;32.70;53.70
20594;DHT22;10455;48.732;10.266;2022-08-03T17:22:49;32.40;54.00
20594;DHT22;10455;48.732;10.266;2022-08-03T17:27:55;32.10;54.20
20594;DHT22;10455;48.732;10.266;2022-08-03T17:32:59;31.40;55.00
20594;DHT22;10455;48.732;10.266;2022-08-03T17:38:01;31.00;54.70
20594;DHT22;10455;48.732;10.266;2022-08-03T17:43:03;30.60;55.00
20594;DHT22;10455;48.732;10.266;2022-08-03T17:48:07;30.60;55.20
20594;DHT22;10455;48.732;10.266;2022-08-03T17:53:12;30.40;55.90
20594;DHT22;10455;48.732;10.266;2022-08-03T17:58:21;30.20;57.10
20594;DHT22;10455;48.732;10.266;2022-08-03T18:03:32;29.90;58.80
20594;DHT22;10455;48.732;10.266;2022-08-03T18:08:43;29.70;58.70
20594;DHT22;10455;48.732;10.266;2022-08-03T18:13:56;29.40;61.70
20594;DHT22;10455;48.732;10.266;2022-08-03T18:19:02;29.00;63.10
20594;DHT22;10455;48.732;10.266;2022-08-03T18:24:04;28.50;64.30
20594;DHT22;10455;48.732;10.266;2022-08-03T18:29:07;28.10;65.80
20594;DHT22;10455;48.732;10.266;2022-08-03T18:34:13;27.60;66.30
20594;DHT22;10455;48.732;10.266;2022-08-03T18:39:16;27.10;68.00
20594;DHT22;10455;48.732;10.266;2022-08-03T18:44:20;26.80;68.40
20594;DHT22;10455;48.732;10.266;2022-08-03T18:49:31;26.60;69.40
20594;DHT22;10455;48.732;10.266;2022-08-03T18:54:45;26.20;70.70
20594;DHT22;10455;48.732;10.266;2022-08-03T18:59:53;25.80;76.60
20594;DHT22;10455;48.732;10.266;2022-08-03T19:05:03;25.20;80.70
20594;DHT22;10455;48.732;10.266;2022-08-03T19:10:07;24.60;83.80
20594;DHT22;10455;48.732;10.266;2022-08-03T19:15:11;24.10;85.50
20594;DHT22;10455;48.732;10.266;2022-08-03T19:20:20;23.70;87.80
20594;DHT22;10455;48.732;10.266;2022-08-03T19:25:22;23.30;90.20
20594;DHT22;10455;48.732;10.266;2022-08-03T19:30:26;23.00;87.40
20594;DHT22;10455;48.732;10.266;2022-08-03T19:35:42;22.70;86.90
20594;DHT22;10455;48.732;10.266;2022-08-03T19:40:47;22.50;90.50
20594;DHT22;10455;48.732;10.266;2022-08-03T19:45:51;22.30;91.10
20594;DHT22;10455;48.732;10.266;2022-08-03T19:50:57;22.10;91.60
20594;DHT22;10455;48.732;10.266;2022-08-03T19:56:04;21.70;91.90
20594;DHT22;10455;48.732;10.266;2022-08-03T20:01:06;21.50;92.40
20594;DHT22;10455;48.732;10.266;2022-08-03T20:06:10;21.40;93.20
20594;DHT22;10455;48.732;10.266;2022-08-03T20:11:13;21.20;93.60
20594;DHT22;10455;48.732;10.266;2022-08-03T20:16:15;21.00;94.20
20594;DHT22;10455;48.732;10.266;2022-08-03T20:21:19;20.60;95.10
20594;DHT22;10455;48.732;10.266;2022-08-03T20:26:28;20.50;94.70
20594;DHT22;10455;48.732;10.266;2022-08-03T20:31:30;20.50;96.00
20594;DHT22;10455;48.732;10.266;2022-08-03T20:36:34;20.50;96.40
20594;DHT22;10455;48.732;10.266;2022-08-03T20:41:36;20.20;97.20
20594;DHT22;10455;48.732;10.266;2022-08-03T20:46:38;20.10;97.50
20594;DHT22;10455;48.732;10.266;2022-08-03T20:51:42;20.00;98.00
20594;DHT22;10455;48.732;10.266;2022-08-03T20:56:44;19.90;98.80
20594;DHT22;10455;48.732;10.266;2022-08-03T21:01:46;19.80;99.70
20594;DHT22;10455;48.732;10.266;2022-08-03T21:06:57;19.70;99.90
20594;DHT22;10455;48.732;10.266;2022-08-03T21:12:02;19.70;99.90
20594;DHT22;10455;48.732;10.266;2022-08-03T21:17:07;19.60;99.90
20594;DHT22;10455;48.732;10.266;2022-08-03T21:22:12;19.50;99.90
20594;DHT22;10455;48.732;10.266;2022-08-03T21:27:15;19.30;99.90
20594;DHT22;10455;48.732;10.266;2022-08-03T21:32:17;19.20;99.90
20594;DHT22;10455;48.732;10.266;2022-08-03T21:37:22;19.10;99.90
20594;DHT22;10455;48.732;10.266;2022-08-03T21:42:25;19.30;99.90
20594;DHT22;10455;48.732;10.266;2022-08-03T21:47:27;19.20;99.90
20594;DHT22;10455;48.732;10.266;2022-08-03T21:52:32;19.10;99.90
20594;DHT22;10455;48.732;10.266;2022-08-03T21:57:37;18.90;99.90
20594;DHT22;10455;48.732;10.266;2022-08-03T22:02:43;18.90;99.90
20594;DHT22;10455;48.732;10.266;2022-08-03T22:07:47;18.80;99.90
20594;DHT22;10455;48.732;10.266;2022-08-03T22:12:49;18.80;99.90
20594;DHT22;10455;48.732;10.266;2022-08-03T22:17:51;18.90;99.90
20594;DHT22;10455;48.732;10.266;2022-08-03T22:23:02;19.00;99.90
20594;DHT22;10455;48.732;10.266;2022-08-03T22:28:07;18.90;99.90
20594;DHT22;10455;48.732;10.266;2022-08-03T22:33:11;19.10;99.90
20594;DHT22;10455;48.732;10.266;2022-08-03T22:38:17;18.90;99.90
20594;DHT22;10455;48.732;10.266;2022-08-03T22:43:21;18.80;99.90
20594;DHT22;10455;48.732;10.266;2022-08-03T22:48:25;18.70;99.90
20594;DHT22;10455;48.732;10.266;2022-08-03T22:53:30;18.60;99.90
20594;DHT22;10455;48.732;10.266;2022-08-03T22:58:32;18.40;99.90
20594;DHT22;10455;48.732;10.266;2022-08-03T23:03:36;18.20;99.90
20594;DHT22;10455;48.732;10.266;2022-08-03T23:08:45;18.10;99.90
20594;DHT22;10455;48.732;10.266;2022-08-03T23:13:51;18.10;99.90
20594;DHT22;10455;48.732;10.266;2022-08-03T23:18:54;18.00;99.90
20594;DHT22;10455;48.732;10.266;2022-08-03T23:23:59;18.40;99.90
20594;DHT22;10455;48.732;10.266;2022-08-03T23:29:02;19.70;99.90
20594;DHT22;10455;48.732;10.266;2022-08-03T23:34:08;20.60;99.90
20594;DHT22;10455;48.732;10.266;2022-08-03T23:39:32;21.40;99.90
20594;DHT22;10455;48.732;10.266;2022-08-03T23:44:36;21.90;99.00
20594;DHT22;10455;48.732;10.266;2022-08-03T23:49:39;22.30;97.70
20594;DHT22;10455;48.732;10.266;2022-08-03T23:54:51;22.40;97.30
